createdAt,value
2022-12-01T00:01:38.954Z,97928.00
2022-12-01T00:04:07.704Z,97923.22
2022-12-01T00:06:37.922Z,97927.44
2022-12-01T00:09:24.516Z,97927.41
2022-12-01T00:11:52.951Z,97932.84
2022-12-01T00:14:23.800Z,97927.34
2022-12-01T00:16:51.906Z,97930.13
2022-12-01T00:19:19.911Z,97921.63
2022-12-01T00:21:48.015Z,97919.94
2022-12-01T00:24:17.792Z,97921.84
2022-12-01T00:26:46.001Z,97921.41
2022-12-01T00:29:13.958Z,97911.13
2022-12-01T00:31:43.297Z,97915.66
2022-12-01T00:34:23.327Z,97924.72
2022-12-01T00:36:52.023Z,97918.09
2022-12-01T00:39:24.105Z,97910.06
2022-12-01T00:41:52.198Z,97920.09
2022-12-01T00:44:20.199Z,97926.66
2022-12-01T00:46:48.827Z,97929.38
2022-12-01T00:49:17.423Z,97914.22
2022-12-01T00:51:45.727Z,97910.34
2022-12-01T00:54:13.773Z,97908.81
2022-12-01T00:56:43.135Z,97918.88
2022-12-01T00:59:11.582Z,97908.97
2022-12-01T01:01:39.957Z,97908.38
2022-12-01T01:04:10.647Z,97908.31
2022-12-01T01:06:38.743Z,97908.31
2022-12-01T01:09:27.684Z,97908.19
2022-12-01T01:11:57.412Z,97897.03
2022-12-01T01:14:25.599Z,97908.31
2022-12-01T01:16:54.227Z,97901.81
2022-12-01T01:19:22.711Z,97896.41
2022-12-01T01:21:50.858Z,97899.19
2022-12-01T01:24:19.313Z,97897.91
2022-12-01T01:26:47.512Z,97896.38
2022-12-01T01:29:16.861Z,97899.75
2022-12-01T01:31:45.004Z,97903.34
2022-12-01T01:34:13.231Z,97901.88
2022-12-01T01:36:44.565Z,97895.56
2022-12-01T01:39:12.937Z,97898.69
2022-12-01T01:41:41.048Z,97894.84
2022-12-01T01:44:42.460Z,97890.56
2022-12-01T01:47:12.893Z,97894.91
2022-12-01T01:49:43.233Z,97889.94
2022-12-01T01:52:12.773Z,97892.34
2022-12-01T01:54:45.339Z,97891.41
2022-12-01T01:57:17.502Z,97898.84
2022-12-01T01:59:50.839Z,97891.91
2022-12-01T02:02:20.595Z,97898.75
2022-12-01T02:04:52.408Z,97896.31
2022-12-01T02:07:21.575Z,97891.91
2022-12-01T02:09:50.082Z,97887.72
2022-12-01T02:12:46.067Z,97886.44
2022-12-01T02:15:25.114Z,97893.53
2022-12-01T02:18:05.253Z,97893.38
2022-12-01T02:20:51.727Z,97887.16
2022-12-01T02:23:43.367Z,97884.47
2022-12-01T02:26:31.542Z,97889.25
2022-12-01T02:29:19.487Z,97881.47
2022-12-01T02:31:56.399Z,97887.44
2022-12-01T02:34:29.639Z,97887.94
2022-12-01T02:37:01.537Z,97884.81
2022-12-01T02:39:35.452Z,97892.88
2022-12-01T02:42:10.178Z,97887.63
2022-12-01T02:44:43.332Z,97888.22
2022-12-01T02:47:15.624Z,97890.66
2022-12-01T02:49:48.939Z,97894.09
2022-12-01T02:52:18.492Z,97891.75
2022-12-01T02:54:48.657Z,97888.50
2022-12-01T02:57:17.503Z,97888.56
2022-12-01T02:59:50.996Z,97892.47
2022-12-01T03:02:32.716Z,97889.66
2022-12-01T03:05:05.120Z,97889.72
2022-12-01T03:07:46.383Z,97893.03
2022-12-01T03:10:24.054Z,97900.72
2022-12-01T03:13:06.851Z,97897.28
2022-12-01T03:15:39.116Z,97894.34
2022-12-01T03:18:20.121Z,97896.09
2022-12-01T03:20:55.272Z,97890.00
2022-12-01T03:23:27.014Z,97894.50
2022-12-01T03:25:57.517Z,97896.09
2022-12-01T03:28:30.583Z,97906.75
2022-12-01T03:31:04.321Z,97900.97
2022-12-01T03:33:37.751Z,97894.00
2022-12-01T03:36:11.808Z,97894.75
2022-12-01T03:38:42.087Z,97891.78
2022-12-01T03:41:16.935Z,97895.69
2022-12-01T03:43:52.654Z,97893.97
2022-12-01T03:46:26.446Z,97898.16
2022-12-01T03:48:56.061Z,97897.75
2022-12-01T03:51:31.508Z,97898.69
2022-12-01T03:54:04.209Z,97893.38
2022-12-01T03:56:39.028Z,97905.16
2022-12-01T03:59:09.869Z,97899.75
2022-12-01T04:01:38.747Z,97904.91
2022-12-01T04:04:11.524Z,97903.28
2022-12-01T04:06:41.401Z,97900.91
2022-12-01T04:09:09.412Z,97904.34
2022-12-01T04:11:55.356Z,97902.03
2022-12-01T04:14:23.660Z,97900.38
2022-12-01T04:16:51.629Z,97900.25
2022-12-01T04:19:21.066Z,97901.28
2022-12-01T04:21:49.076Z,97887.34
2022-12-01T04:24:17.284Z,97897.81
2022-12-01T04:26:46.180Z,97895.78
2022-12-01T04:29:14.990Z,97900.63
2022-12-01T04:31:43.065Z,97896.25
2022-12-01T04:34:11.914Z,97889.84
2022-12-01T04:36:41.339Z,97884.31
2022-12-01T04:39:09.465Z,97882.34
2022-12-01T04:41:37.400Z,97883.13
2022-12-01T04:44:05.839Z,97892.81
2022-12-01T04:46:33.826Z,97887.97
2022-12-01T04:49:01.909Z,97894.47
2022-12-01T04:51:30.317Z,97903.97
2022-12-01T04:53:59.720Z,97899.09
2022-12-01T04:56:27.690Z,97901.53
2022-12-01T04:58:59.002Z,97894.78
2022-12-01T05:01:27.232Z,97900.91
2022-12-01T05:03:55.512Z,97897.91
2022-12-01T05:06:25.336Z,97905.06
2022-12-01T05:08:57.098Z,97897.41
2022-12-01T05:11:28.368Z,97895.78
2022-12-01T05:13:56.559Z,97899.63
2022-12-01T05:16:26.946Z,97898.56
2022-12-01T05:19:13.369Z,97901.25
2022-12-01T05:21:42.240Z,97896.09
2022-12-01T05:24:11.851Z,97899.59
2022-12-01T05:26:42.302Z,97904.09
2022-12-01T05:29:10.652Z,97909.84
2022-12-01T05:31:39.790Z,97902.09
2022-12-01T05:34:08.208Z,97908.31
2022-12-01T05:36:36.515Z,97908.75
2022-12-01T05:39:05.381Z,97904.19
2022-12-01T05:41:33.505Z,97909.28
2022-12-01T05:44:02.904Z,97908.06
2022-12-01T05:46:31.066Z,97910.31
2022-12-01T05:48:59.204Z,97912.66
2022-12-01T05:51:27.340Z,97910.84
2022-12-01T05:53:55.376Z,97909.84
2022-12-01T05:56:23.713Z,97922.19
2022-12-01T05:58:51.680Z,97917.91
2022-12-01T06:01:21.085Z,97916.88
2022-12-01T06:03:49.244Z,97912.47
2022-12-01T06:06:17.569Z,97918.66
2022-12-01T06:08:45.661Z,97913.59
2022-12-01T06:11:13.776Z,97909.78
2022-12-01T06:13:41.970Z,97907.25
2022-12-01T06:16:10.406Z,97918.00
2022-12-01T06:18:40.611Z,97921.59
2022-12-01T06:21:08.725Z,97922.81
2022-12-01T06:23:36.672Z,97931.34
2022-12-01T06:26:05.661Z,97935.25
2022-12-01T06:28:33.669Z,97941.91
2022-12-01T06:31:03.676Z,97940.47
2022-12-01T06:33:32.515Z,97935.03
2022-12-01T06:36:03.124Z,97936.16
2022-12-01T06:38:32.463Z,97940.25
2022-12-01T06:41:00.908Z,97939.91
2022-12-01T06:43:29.781Z,97931.94
2022-12-01T06:46:02.131Z,97942.84
2022-12-01T06:48:30.694Z,97942.75
2022-12-01T06:50:58.812Z,97934.31
2022-12-01T06:53:28.658Z,97932.63
2022-12-01T06:56:00.908Z,97936.00
2022-12-01T06:58:29.509Z,97925.00
2022-12-01T07:00:58.938Z,97938.13
2022-12-01T07:03:27.412Z,97947.38
2022-12-01T07:05:59.859Z,97943.84
2022-12-01T07:08:31.050Z,97942.34
2022-12-01T07:11:00.220Z,97943.34
2022-12-01T07:13:33.358Z,97940.16
2022-12-01T07:16:03.175Z,97944.09
2022-12-01T07:18:31.782Z,97946.63
2022-12-01T07:21:01.719Z,97951.06
2022-12-01T07:23:31.752Z,97955.06
2022-12-01T07:26:01.094Z,97953.47
2022-12-01T07:28:29.541Z,97951.69
2022-12-01T07:31:03.395Z,97959.00
2022-12-01T07:33:31.965Z,97955.41
2022-12-01T07:36:00.245Z,97953.16
2022-12-01T07:38:29.420Z,97957.38
2022-12-01T07:41:02.885Z,97962.16
2022-12-01T07:43:31.889Z,97963.91
2022-12-01T07:46:06.436Z,97964.84
2022-12-01T07:48:35.299Z,97958.22
2022-12-01T07:51:04.523Z,97962.88
2022-12-01T07:53:33.150Z,97964.25
2022-12-01T07:56:07.084Z,97968.38
2022-12-01T07:58:37.769Z,97968.84
2022-12-01T08:01:10.310Z,97971.19
2022-12-01T08:03:39.567Z,97960.72
2022-12-01T08:06:09.338Z,97960.88
2022-12-01T08:08:39.248Z,97965.00
2022-12-01T08:11:11.677Z,97967.47
2022-12-01T08:13:40.180Z,97972.47
2022-12-01T08:16:09.917Z,97965.16
2022-12-01T08:18:39.305Z,97954.59
2022-12-01T08:21:09.612Z,97962.00
2022-12-01T08:23:37.894Z,97960.91
2022-12-01T08:26:09.991Z,97956.09
2022-12-01T08:28:40.563Z,97964.72
2022-12-01T08:31:10.869Z,97971.44
2022-12-01T08:33:39.490Z,97968.47
2022-12-01T08:36:08.248Z,97970.03
2022-12-01T08:38:36.785Z,97969.44
2022-12-01T08:41:06.783Z,97972.78
2022-12-01T08:46:29.720Z,97968.31
2022-12-01T08:48:58.202Z,97970.50
2022-12-01T08:51:27.192Z,97974.03
2022-12-01T08:53:57.065Z,97970.16
2022-12-01T08:56:27.853Z,97970.34
2022-12-01T08:58:58.066Z,97971.84
2022-12-01T09:01:26.812Z,97974.19
2022-12-01T09:04:06.688Z,97979.22
2022-12-01T09:06:38.866Z,97978.50
2022-12-01T09:09:07.652Z,97981.94
2022-12-01T09:11:35.753Z,97987.91
2022-12-01T09:14:05.458Z,97983.31
2022-12-01T09:16:33.936Z,97982.63
2022-12-01T09:19:02.396Z,97982.94
2022-12-01T09:21:32.550Z,97984.25
2022-12-01T09:24:01.544Z,97989.13
2022-12-01T09:26:29.930Z,97988.25
2022-12-01T09:29:00.553Z,97986.38
2022-12-01T09:31:31.114Z,97976.03
2022-12-01T09:34:01.931Z,97980.09
2022-12-01T09:36:30.346Z,97973.53
2022-12-01T09:38:58.876Z,97966.16
2022-12-01T09:41:31.165Z,97973.94
2022-12-01T09:44:05.834Z,97971.41
2022-12-01T09:46:41.985Z,97976.16
2022-12-01T09:49:17.081Z,97965.41
2022-12-01T09:51:45.677Z,97966.84
2022-12-01T09:54:15.368Z,97966.94
2022-12-01T09:56:46.830Z,97970.16
2022-12-01T09:59:20.581Z,97968.03
2022-12-01T10:01:54.646Z,97966.06
2022-12-01T10:04:30.594Z,97971.00
2022-12-01T10:07:01.984Z,97969.69
2022-12-01T10:09:37.035Z,97969.28
2022-12-01T10:12:13.515Z,97959.25
2022-12-01T10:14:42.614Z,97956.63
2022-12-01T10:17:22.861Z,97956.31
2022-12-01T10:19:58.353Z,97961.84
2022-12-01T10:23:00.752Z,97962.03
2022-12-01T10:25:32.165Z,97960.19
2022-12-01T10:28:25.433Z,97959.63
2022-12-01T10:31:00.377Z,97961.47
2022-12-01T10:33:37.033Z,97960.66
2022-12-01T10:36:05.715Z,97964.81
2022-12-01T10:38:37.549Z,97963.69
2022-12-01T10:41:12.095Z,97951.84
2022-12-01T10:43:43.992Z,97946.44
2022-12-01T10:46:25.004Z,97946.97
2022-12-01T10:48:57.486Z,97954.81
2022-12-01T10:51:27.080Z,97951.78
2022-12-01T10:54:00.299Z,97955.84
2022-12-01T10:56:29.359Z,97949.44
2022-12-01T10:58:59.985Z,97945.59
2022-12-01T11:01:35.549Z,97944.16
2022-12-01T11:04:08.439Z,97937.06
2022-12-01T11:06:39.018Z,97936.97
2022-12-01T11:09:21.514Z,97939.47
2022-12-01T11:11:57.858Z,97934.75
2022-12-01T11:14:35.230Z,97938.72
2022-12-01T11:17:16.884Z,97936.84
2022-12-01T11:19:46.702Z,97920.78
2022-12-01T11:22:22.744Z,97930.69
2022-12-01T11:25:02.836Z,97923.69
2022-12-01T11:27:34.899Z,97914.28
2022-12-01T11:30:06.609Z,97909.91
2022-12-01T11:32:38.430Z,97909.56
2022-12-01T11:35:18.130Z,97916.28
2022-12-01T11:38:21.089Z,97911.41
2022-12-01T11:40:48.796Z,97911.63
2022-12-01T11:43:26.599Z,97917.66
2022-12-01T11:45:57.265Z,97913.09
2022-12-01T11:48:27.248Z,97918.03
2022-12-01T11:51:06.264Z,97919.78
2022-12-01T11:53:37.073Z,97914.59
2022-12-01T11:56:17.200Z,97910.03
2022-12-01T11:58:48.246Z,97915.56
2022-12-01T12:01:25.581Z,97917.53
2022-12-01T12:04:04.081Z,97916.38
2022-12-01T12:06:42.021Z,97911.44
2022-12-01T12:09:30.711Z,97915.81
2022-12-01T12:12:09.058Z,97922.28
2022-12-01T12:14:50.810Z,97908.91
2022-12-01T12:17:27.911Z,97916.06
2022-12-01T12:20:34.880Z,97920.25
2022-12-01T12:23:24.774Z,97922.91
2022-12-01T12:26:04.081Z,97912.16
2022-12-01T12:28:53.072Z,97909.72
2022-12-01T12:31:30.772Z,97907.50
2022-12-01T12:34:23.595Z,97906.13
2022-12-01T12:37:03.264Z,97904.06
2022-12-01T12:39:46.021Z,97908.47
2022-12-01T12:42:24.712Z,97910.88
2022-12-01T12:44:58.363Z,97905.41
2022-12-01T12:47:43.386Z,97911.31
2022-12-01T12:50:24.708Z,97902.84
2022-12-01T12:52:58.179Z,97914.00
2022-12-01T12:55:33.942Z,97913.59
2022-12-01T12:58:11.340Z,97909.28
2022-12-01T13:00:47.739Z,97904.44
2022-12-01T13:03:21.331Z,97903.19
2022-12-01T13:05:55.158Z,97896.84
2022-12-01T13:08:26.830Z,97906.88
2022-12-01T13:11:02.063Z,97903.50
2022-12-01T13:13:37.618Z,97901.53
2022-12-01T13:16:11.688Z,97901.25
2022-12-01T13:18:44.054Z,97902.22
2022-12-01T13:21:18.634Z,97894.16
2022-12-01T13:23:49.034Z,97901.91
2022-12-01T13:26:21.221Z,97898.28
2022-12-01T13:28:53.943Z,97900.00
2022-12-01T13:31:23.007Z,97899.50
2022-12-01T13:33:59.270Z,97900.44
2022-12-01T13:39:21.245Z,97899.69
2022-12-01T13:42:00.825Z,97885.84
2022-12-01T13:44:33.024Z,97886.75
2022-12-01T13:47:05.395Z,97895.28
2022-12-01T13:49:39.884Z,97891.03
2022-12-01T13:52:28.593Z,97887.59
2022-12-01T13:55:28.725Z,97886.28
2022-12-01T13:58:25.228Z,97875.44
2022-12-01T14:00:53.795Z,97883.06
2022-12-01T14:03:38.430Z,97887.75
2022-12-01T14:06:22.892Z,97885.84
2022-12-01T14:08:53.980Z,97881.75
2022-12-01T14:11:25.531Z,97886.19
2022-12-01T14:13:58.876Z,97876.22
2022-12-01T14:16:46.072Z,97880.09
2022-12-01T14:19:29.398Z,97887.69
2022-12-01T14:21:58.643Z,97874.59
2022-12-01T14:24:33.260Z,97884.31
2022-12-01T14:27:01.879Z,97882.94
2022-12-01T14:29:34.322Z,97874.28
2022-12-01T14:32:26.771Z,97877.56
2022-12-01T14:35:09.537Z,97886.13
2022-12-01T14:37:44.599Z,97889.06
2022-12-01T14:40:32.609Z,97890.13
2022-12-01T14:43:19.841Z,97880.66
2022-12-01T14:45:58.398Z,97887.69
2022-12-01T14:48:34.656Z,97884.03
2022-12-01T14:51:14.872Z,97876.84
2022-12-01T14:53:46.034Z,97886.16
2022-12-01T14:56:17.909Z,97877.59
2022-12-01T14:58:54.406Z,97873.69
2022-12-01T15:01:25.233Z,97879.69
2022-12-01T15:03:59.570Z,97877.56
2022-12-01T15:06:31.080Z,97875.47
2022-12-01T15:09:32.752Z,97867.97
2022-12-01T15:11:58.763Z,97865.28
2022-12-01T15:14:35.633Z,97869.25
2022-12-01T15:17:09.090Z,97870.19
2022-12-01T15:19:39.711Z,97868.34
2022-12-01T15:22:14.892Z,97869.53
2022-12-01T15:24:43.813Z,97871.91
2022-12-01T15:27:26.910Z,97867.69
2022-12-01T15:29:56.708Z,97868.59
2022-12-01T15:32:27.957Z,97868.44
2022-12-01T15:35:01.674Z,97863.47
2022-12-01T15:37:31.664Z,97862.44
2022-12-01T15:43:05.486Z,97862.84
2022-12-01T15:45:44.498Z,97862.13
2022-12-01T15:48:18.521Z,97852.97
2022-12-01T15:50:50.564Z,97858.31
2022-12-01T15:53:25.139Z,97861.53
2022-12-01T15:55:58.703Z,97861.34
2022-12-01T15:58:30.836Z,97863.53
2022-12-01T16:01:01.617Z,97868.06
2022-12-01T16:03:32.159Z,97862.50
2022-12-01T16:06:00.195Z,97857.44
2022-12-01T16:08:29.466Z,97856.31
2022-12-01T16:11:15.930Z,97857.59
2022-12-01T16:13:47.828Z,97858.00
2022-12-01T16:16:41.257Z,97860.22
2022-12-01T16:19:32.394Z,97858.94
2022-12-01T16:22:14.084Z,97862.56
2022-12-01T16:24:49.060Z,97862.69
2022-12-01T16:27:21.966Z,97858.31
2022-12-01T16:29:52.488Z,97860.16
2022-12-01T16:32:23.707Z,97854.84
2022-12-01T16:34:54.825Z,97851.88
2022-12-01T16:37:23.367Z,97862.03
2022-12-01T16:39:51.510Z,97854.47
2022-12-01T16:42:22.368Z,97859.75
2022-12-01T16:44:51.584Z,97856.69
2022-12-01T16:47:21.728Z,97856.06
2022-12-01T16:49:51.033Z,97855.38
2022-12-01T16:52:44.189Z,97854.38
2022-12-01T16:55:24.418Z,97860.88
2022-12-01T16:57:52.932Z,97862.81
2022-12-01T17:00:22.018Z,97862.66
2022-12-01T17:02:50.401Z,97860.25
2022-12-01T17:05:18.749Z,97858.09
2022-12-01T17:07:48.819Z,97865.34
2022-12-01T17:10:17.743Z,97861.47
2022-12-01T17:12:45.835Z,97866.34
2022-12-01T17:15:14.162Z,97874.66
2022-12-01T17:17:42.165Z,97872.81
2022-12-01T17:20:11.310Z,97879.00
2022-12-01T17:22:40.123Z,97868.66
2022-12-01T17:25:10.775Z,97869.38
2022-12-01T17:27:39.708Z,97859.09
2022-12-01T17:30:08.996Z,97871.53
2022-12-01T17:32:37.548Z,97869.00
2022-12-01T17:35:06.359Z,97859.88
2022-12-01T17:37:36.843Z,97871.63
2022-12-01T17:40:06.316Z,97865.59
2022-12-01T17:42:35.856Z,97870.69
2022-12-01T17:45:04.136Z,97876.34
2022-12-01T17:47:32.397Z,97868.25
2022-12-01T17:50:00.327Z,97871.81
2022-12-01T17:52:29.298Z,97878.38
2022-12-01T17:54:58.085Z,97877.53
2022-12-01T17:57:26.780Z,97865.91
2022-12-01T17:59:56.460Z,97865.31
2022-12-01T18:02:24.671Z,97866.22
2022-12-01T18:04:53.256Z,97869.22
2022-12-01T18:07:21.522Z,97868.81
2022-12-01T18:09:49.642Z,97864.38
2022-12-01T18:12:17.686Z,97867.28
2022-12-01T18:14:45.795Z,97869.94
2022-12-01T18:17:15.211Z,97867.00
2022-12-01T18:19:43.205Z,97872.19
2022-12-01T18:22:11.340Z,97869.28
2022-12-01T18:24:39.602Z,97868.97
2022-12-01T18:27:07.594Z,97871.22
2022-12-01T18:29:35.636Z,97863.53
2022-12-01T18:32:04.252Z,97872.28
2022-12-01T18:34:34.037Z,97865.16
2022-12-01T18:37:02.563Z,97857.03
2022-12-01T18:39:30.507Z,97861.13
2022-12-01T18:41:58.725Z,97850.31
2022-12-01T18:44:26.883Z,97853.13
2022-12-01T18:46:57.222Z,97852.00
2022-12-01T18:49:25.706Z,97846.91
2022-12-01T18:51:55.048Z,97848.88
2022-12-01T18:54:23.102Z,97852.34
2022-12-01T18:56:52.521Z,97848.97
2022-12-01T18:59:20.773Z,97840.84
2022-12-01T19:01:49.149Z,97842.69
2022-12-01T19:04:18.163Z,97848.91
2022-12-01T19:06:47.274Z,97840.66
2022-12-01T19:09:17.571Z,97837.56
2022-12-01T19:11:46.046Z,97833.03
2022-12-01T19:14:16.768Z,97838.66
2022-12-01T19:16:46.445Z,97827.66
2022-12-01T19:19:14.599Z,97825.56
2022-12-01T19:21:45.066Z,97832.53
2022-12-01T19:24:14.056Z,97835.38
2022-12-01T19:26:43.817Z,97837.88
2022-12-01T19:29:11.919Z,97842.50
2022-12-01T19:31:40.714Z,97836.41
2022-12-01T19:34:08.818Z,97836.75
2022-12-01T19:36:36.921Z,97834.88
2022-12-01T19:39:07.624Z,97829.75
2022-12-01T19:41:38.650Z,97833.28
2022-12-01T19:44:08.374Z,97839.59
2022-12-01T19:46:36.372Z,97829.94
2022-12-01T19:49:05.681Z,97827.66
2022-12-01T19:51:36.033Z,97827.06
2022-12-01T19:54:04.329Z,97822.19
2022-12-01T19:56:32.587Z,97830.44
2022-12-01T19:59:01.150Z,97828.03
2022-12-01T20:01:30.678Z,97827.66
2022-12-01T20:03:59.065Z,97830.69
2022-12-01T20:06:29.667Z,97833.94
2022-12-01T20:09:00.749Z,97834.50
2022-12-01T20:11:32.726Z,97835.22
2022-12-01T20:14:01.214Z,97840.25
2022-12-01T20:16:32.136Z,97838.13
2022-12-01T20:19:02.381Z,97838.88
2022-12-01T20:21:32.693Z,97837.19
2022-12-01T20:24:02.083Z,97844.13
2022-12-01T20:26:32.654Z,97847.41
2022-12-01T20:29:03.339Z,97837.31
2022-12-01T20:31:34.560Z,97833.16
2022-12-01T20:34:06.154Z,97831.09
2022-12-01T20:36:34.842Z,97825.56
2022-12-01T20:39:03.554Z,97821.47
2022-12-01T20:41:31.653Z,97819.09
2022-12-01T20:44:05.397Z,97826.22
2022-12-01T20:46:37.580Z,97825.81
2022-12-01T20:49:06.448Z,97813.66
2022-12-01T20:51:34.699Z,97817.97
2022-12-01T20:54:27.211Z,97813.72
2022-12-01T20:56:51.979Z,97822.22
2022-12-01T20:59:20.131Z,97814.84
2022-12-01T21:01:49.695Z,97824.09
2022-12-01T21:04:17.666Z,97816.09
2022-12-01T21:06:45.795Z,97821.25
2022-12-01T21:09:14.931Z,97819.09
2022-12-01T21:12:03.907Z,97810.13
2022-12-01T21:14:37.775Z,97808.81
2022-12-01T21:17:15.946Z,97814.97
2022-12-01T21:19:51.231Z,97807.75
2022-12-01T21:22:20.196Z,97814.78
2022-12-01T21:24:51.782Z,97803.75
2022-12-01T21:27:20.264Z,97806.09
2022-12-01T21:29:50.217Z,97812.50
2022-12-01T21:32:22.281Z,97805.16
2022-12-01T21:34:51.080Z,97806.56
2022-12-01T21:37:23.121Z,97815.13
2022-12-01T21:39:52.814Z,97818.56
2022-12-01T21:42:22.769Z,97822.00
2022-12-01T21:44:51.135Z,97815.22
2022-12-01T21:47:23.418Z,97814.41
2022-12-01T21:49:54.045Z,97818.91
2022-12-01T21:52:25.060Z,97812.97
2022-12-01T21:54:53.665Z,97810.44
2022-12-01T21:57:38.532Z,97803.03
2022-12-01T22:00:28.597Z,97798.00
2022-12-01T22:03:24.540Z,97801.50
2022-12-01T22:06:27.761Z,97795.94
2022-12-01T22:08:49.573Z,97796.44
2022-12-01T22:11:21.867Z,97793.53
2022-12-01T22:13:54.859Z,97788.09
2022-12-01T22:16:29.548Z,97801.72
2022-12-01T22:19:01.464Z,97790.75
2022-12-01T22:21:35.644Z,97793.53
2022-12-01T22:24:23.370Z,97794.78
2022-12-01T22:26:58.838Z,97791.34
2022-12-01T22:29:29.912Z,97782.00
2022-12-01T22:32:42.462Z,97787.22
2022-12-01T22:35:23.713Z,97776.78
2022-12-01T22:37:53.421Z,97779.59
2022-12-01T22:40:39.920Z,97779.06
2022-12-01T22:43:29.946Z,97777.16
2022-12-01T22:46:21.047Z,97774.56
2022-12-01T22:48:51.980Z,97775.31
2022-12-01T22:51:47.466Z,97779.84
2022-12-01T22:54:35.060Z,97784.19
2022-12-01T22:57:19.539Z,97769.44
2022-12-01T22:59:48.126Z,97774.34
2022-12-01T23:02:21.980Z,97775.59
2022-12-01T23:04:53.359Z,97761.63
2022-12-01T23:07:41.528Z,97769.16
2022-12-01T23:10:15.763Z,97769.63
2022-12-01T23:12:45.110Z,97755.09
2022-12-01T23:15:22.284Z,97752.41
2022-12-01T23:17:51.183Z,97755.84
2022-12-01T23:20:32.197Z,97755.56
2022-12-01T23:23:04.072Z,97749.66
2022-12-01T23:25:32.559Z,97748.06
2022-12-01T23:28:04.470Z,97745.50
2022-12-01T23:30:33.061Z,97747.34
2022-12-01T23:33:17.457Z,97740.31
2022-12-01T23:35:48.989Z,97743.72
2022-12-01T23:38:21.699Z,97755.91
2022-12-01T23:40:51.861Z,97752.75
2022-12-01T23:43:21.958Z,97753.44
2022-12-01T23:45:56.663Z,97736.94
2022-12-01T23:48:30.119Z,97730.94
2022-12-01T23:50:58.339Z,97729.75
2022-12-01T23:53:31.442Z,97717.97
2022-12-01T23:56:04.742Z,97713.03
2022-12-01T23:58:32.894Z,97714.78
